createdAt,value
2023-02-08T00:00:52.425Z,-2.96
2023-02-08T00:03:18.969Z,-2.97
2023-02-08T00:05:45.465Z,-2.96
2023-02-08T00:08:11.989Z,-3.02
2023-02-08T00:10:39.042Z,-2.98
2023-02-08T00:13:05.792Z,-3.01
2023-02-08T00:15:32.327Z,-3.03
2023-02-08T00:17:58.851Z,-3.03
2023-02-08T00:20:25.409Z,-3.03
2023-02-08T00:22:53.262Z,-3.07
2023-02-08T00:25:20.170Z,-3.15
2023-02-08T00:27:46.756Z,-3.16
2023-02-08T00:30:13.317Z,-3.18
2023-02-08T00:32:39.825Z,-3.23
2023-02-08T00:35:06.691Z,-3.19
2023-02-08T00:37:33.274Z,-3.20
2023-02-08T00:40:02.495Z,-3.20
2023-02-08T00:42:29.282Z,-3.16
2023-02-08T00:44:55.779Z,-3.21
2023-02-08T00:47:22.282Z,-3.20
2023-02-08T00:49:48.731Z,-3.21
2023-02-08T00:52:15.225Z,-3.26
2023-02-08T00:54:42.733Z,-3.26
2023-02-08T00:57:09.351Z,-3.24
2023-02-08T00:59:35.996Z,-3.29
2023-02-08T01:02:02.548Z,-3.29
2023-02-08T01:04:29.141Z,-3.28
2023-02-08T01:06:55.819Z,-3.28
2023-02-08T01:09:22.365Z,-3.33
2023-02-08T01:11:48.796Z,-3.40
2023-02-08T01:14:15.612Z,-3.39
2023-02-08T01:16:42.274Z,-3.43
2023-02-08T01:19:08.924Z,-3.42
2023-02-08T01:21:38.316Z,-3.45
2023-02-08T01:24:05.528Z,-3.51
2023-02-08T01:26:32.787Z,-3.51
2023-02-08T01:28:59.657Z,-3.57
2023-02-08T01:31:29.756Z,-3.59
2023-02-08T01:33:57.744Z,-3.62
2023-02-08T01:36:25.221Z,-3.55
2023-02-08T01:38:52.173Z,-3.51
2023-02-08T01:41:24.586Z,-3.53
2023-02-08T01:44:06.222Z,-3.50
2023-02-08T01:46:38.332Z,-3.52
2023-02-08T01:49:12.575Z,-3.50
2023-02-08T01:51:43.669Z,-3.52
2023-02-08T01:54:12.596Z,-3.51
2023-02-08T01:56:42.792Z,-3.53
2023-02-08T01:59:15.806Z,-3.57
2023-02-08T02:01:43.597Z,-3.62
2023-02-08T02:04:10.148Z,-3.63
2023-02-08T02:06:46.149Z,-3.70
2023-02-08T02:09:21.001Z,-3.72
2023-02-08T02:11:50.097Z,-3.80
2023-02-08T02:14:16.969Z,-3.82
2023-02-08T02:16:43.529Z,-3.78
2023-02-08T02:19:25.997Z,-3.82
2023-02-08T02:22:23.850Z,-3.80
2023-02-08T02:25:03.816Z,-3.79
2023-02-08T02:27:44.485Z,-3.78
2023-02-08T02:30:29.781Z,-3.79
2023-02-08T02:33:23.899Z,-3.86
2023-02-08T02:36:02.799Z,-3.90
2023-02-08T02:38:48.400Z,-3.87
2023-02-08T02:41:53.840Z,-3.90
2023-02-08T02:44:58.944Z,-3.90
2023-02-08T02:47:51.423Z,-3.95
2023-02-08T02:50:45.345Z,-3.91
2023-02-08T02:53:18.060Z,-3.90
2023-02-08T02:55:49.986Z,-3.95
2023-02-08T02:58:19.952Z,-4.01
2023-02-08T03:00:53.758Z,-3.99
2023-02-08T03:03:25.220Z,-4.05
2023-02-08T03:05:54.348Z,-4.02
2023-02-08T03:08:40.473Z,-4.09
2023-02-08T03:11:18.708Z,-4.03
2023-02-08T03:13:51.271Z,-4.00
2023-02-08T03:16:20.778Z,-4.05
2023-02-08T03:18:59.228Z,-4.03
2023-02-08T03:21:41.281Z,-4.01
2023-02-08T03:24:40.326Z,-3.99
2023-02-08T03:27:16.209Z,-4.07
2023-02-08T03:30:00.785Z,-4.03
2023-02-08T03:32:32.458Z,-4.05
2023-02-08T03:35:11.464Z,-4.04
2023-02-08T03:38:14.032Z,-4.07
2023-02-08T03:40:46.216Z,-4.06
2023-02-08T03:43:20.589Z,-4.08
2023-02-08T03:45:54.135Z,-4.14
2023-02-08T03:48:23.240Z,-4.12
2023-02-08T03:50:53.841Z,-4.15
2023-02-08T03:53:23.263Z,-4.23
2023-02-08T03:55:56.471Z,-4.24
2023-02-08T03:58:30.739Z,-4.28
2023-02-08T04:01:08.995Z,-4.33
2023-02-08T04:03:36.655Z,-4.37
2023-02-08T04:06:03.460Z,-4.34
2023-02-08T04:08:30.421Z,-4.36
2023-02-08T04:10:58.332Z,-4.36
2023-02-08T04:13:24.796Z,-4.32
2023-02-08T04:15:51.343Z,-4.31
2023-02-08T04:18:18.082Z,-4.32
2023-02-08T04:20:44.583Z,-4.30
2023-02-08T04:23:11.089Z,-4.31
2023-02-08T04:25:37.511Z,-4.28
2023-02-08T04:28:04.126Z,-4.32
2023-02-08T04:30:30.656Z,-4.36
2023-02-08T04:32:58.297Z,-4.34
2023-02-08T04:35:24.773Z,-4.34
2023-02-08T04:37:51.328Z,-4.35
2023-02-08T04:40:17.900Z,-4.38
2023-02-08T04:42:44.385Z,-4.42
2023-02-08T04:45:10.876Z,-4.40
2023-02-08T04:47:37.362Z,-4.42
2023-02-08T04:50:04.698Z,-4.37
2023-02-08T04:52:31.168Z,-4.41
2023-02-08T04:54:57.691Z,-4.44
2023-02-08T04:57:24.134Z,-4.40
2023-02-08T04:59:50.709Z,-4.40
2023-02-08T05:02:17.234Z,-4.40
2023-02-08T05:04:43.912Z,-4.41
2023-02-08T05:07:10.393Z,-4.43
2023-02-08T05:09:36.957Z,-4.46
2023-02-08T05:12:03.613Z,-4.45
2023-02-08T05:14:30.091Z,-4.49
2023-02-08T05:16:56.591Z,-4.43
2023-02-08T05:19:23.056Z,-4.47
2023-02-08T05:21:49.576Z,-4.50
2023-02-08T05:24:16.888Z,-4.50
2023-02-08T05:26:43.377Z,-4.51
2023-02-08T05:29:10.692Z,-4.50
2023-02-08T05:31:37.432Z,-4.49
2023-02-08T05:34:04.034Z,-4.50
2023-02-08T05:36:30.474Z,-4.50
2023-02-08T05:38:57.023Z,-4.52
2023-02-08T05:41:23.500Z,-4.55
2023-02-08T05:43:49.995Z,-4.58
2023-02-08T05:46:16.613Z,-4.64
2023-02-08T05:48:43.139Z,-4.63
2023-02-08T05:51:09.946Z,-4.66
2023-02-08T05:53:37.700Z,-4.64
2023-02-08T05:56:04.651Z,-4.60
2023-02-08T05:58:31.329Z,-4.62
2023-02-08T06:00:57.798Z,-4.62
2023-02-08T06:03:24.410Z,-4.59
2023-02-08T06:05:50.927Z,-4.56
2023-02-08T06:08:17.401Z,-4.59
2023-02-08T06:10:45.763Z,-4.61
2023-02-08T06:13:12.247Z,-4.67
2023-02-08T06:15:38.705Z,-4.72
2023-02-08T06:18:05.250Z,-4.75
2023-02-08T06:20:31.734Z,-4.79
2023-02-08T06:22:58.227Z,-4.78
2023-02-08T06:25:24.673Z,-4.82
2023-02-08T06:27:51.243Z,-4.79
2023-02-08T06:30:17.776Z,-4.79
2023-02-08T06:32:44.255Z,-4.81
2023-02-08T06:35:10.963Z,-4.86
2023-02-08T06:37:37.647Z,-4.84
2023-02-08T06:40:05.074Z,-4.85
2023-02-08T06:42:31.768Z,-4.85
2023-02-08T06:44:58.669Z,-4.85
2023-02-08T06:47:26.713Z,-4.81
2023-02-08T06:49:53.707Z,-4.84
2023-02-08T06:52:20.991Z,-4.82
2023-02-08T06:54:47.488Z,-4.79
2023-02-08T06:57:13.965Z,-4.81
2023-02-08T06:59:41.493Z,-4.83
2023-02-08T07:02:19.605Z,-4.80
2023-02-08T07:04:46.430Z,-4.81
2023-02-08T07:07:13.980Z,-4.78
2023-02-08T07:09:41.170Z,-4.78
2023-02-08T07:12:08.205Z,-4.71
2023-02-08T07:14:37.269Z,-4.73
2023-02-08T07:17:04.077Z,-4.68
2023-02-08T07:19:31.201Z,-4.69
2023-02-08T07:22:03.046Z,-4.68
2023-02-08T07:24:29.518Z,-4.68
2023-02-08T07:26:56.019Z,-4.67
2023-02-08T07:29:22.512Z,-4.73
2023-02-08T07:31:49.037Z,-4.70
2023-02-08T07:34:21.678Z,-4.65
2023-02-08T07:36:49.443Z,-4.58
2023-02-08T07:39:15.946Z,-4.49
2023-02-08T07:41:42.436Z,-4.50
2023-02-08T07:44:08.989Z,-4.43
2023-02-08T07:46:35.487Z,-4.33
2023-02-08T07:49:01.942Z,-4.33
2023-02-08T07:51:28.435Z,-4.27
2023-02-08T07:53:54.880Z,-4.19
2023-02-08T07:56:21.401Z,-4.15
2023-02-08T07:58:48.063Z,-4.12
2023-02-08T08:01:22.222Z,-4.05
2023-02-08T08:03:51.027Z,-3.99
2023-02-08T08:06:18.983Z,-3.98
2023-02-08T08:08:47.466Z,-3.90
2023-02-08T08:11:15.232Z,-3.86
2023-02-08T08:13:41.858Z,-3.80
2023-02-08T08:16:08.757Z,-3.77
2023-02-08T08:18:35.936Z,-3.70
2023-02-08T08:21:03.021Z,-3.65
2023-02-08T08:23:30.046Z,-3.54
2023-02-08T08:25:56.573Z,-3.47
2023-02-08T08:28:23.121Z,-3.34
2023-02-08T08:30:49.829Z,-3.27
2023-02-08T08:33:16.446Z,-3.21
2023-02-08T08:35:44.348Z,-3.09
2023-02-08T08:38:11.013Z,-3.01
2023-02-08T08:40:37.529Z,-2.86
2023-02-08T08:43:04.000Z,-2.75
2023-02-08T08:45:30.523Z,-2.59
2023-02-08T08:47:57.104Z,-2.44
2023-02-08T08:50:23.574Z,-2.33
2023-02-08T08:52:50.062Z,-2.25
2023-02-08T08:55:16.581Z,-2.11
2023-02-08T08:57:43.117Z,-1.98
2023-02-08T09:00:10.388Z,-1.83
2023-02-08T09:02:36.881Z,-1.71
2023-02-08T09:05:05.534Z,-1.60
2023-02-08T09:07:33.359Z,-1.52
2023-02-08T09:09:59.842Z,-1.39
2023-02-08T09:12:26.325Z,-1.26
2023-02-08T09:14:52.857Z,-1.16
2023-02-08T09:17:19.385Z,-0.97
2023-02-08T09:19:47.349Z,-0.86
2023-02-08T09:22:14.275Z,-0.74
2023-02-08T09:24:40.785Z,-0.60
2023-02-08T09:27:07.367Z,-0.49
2023-02-08T09:29:34.381Z,-0.36
2023-02-08T09:32:01.055Z,-0.24
2023-02-08T09:34:27.959Z,-0.16
2023-02-08T09:36:54.584Z,-0.03
2023-02-08T09:39:23.581Z,0.08
2023-02-08T09:42:05.069Z,0.24
2023-02-08T09:44:49.875Z,0.35
2023-02-08T09:47:43.227Z,0.52
2023-02-08T09:50:25.043Z,0.69
2023-02-08T09:52:59.480Z,0.84
2023-02-08T09:55:31.774Z,0.94
2023-02-08T09:58:01.246Z,1.05
2023-02-08T10:00:35.267Z,1.16
2023-02-08T10:03:03.401Z,1.31
2023-02-08T10:05:31.440Z,1.41
2023-02-08T10:07:58.644Z,1.52
2023-02-08T10:10:46.360Z,1.61
2023-02-08T10:13:41.070Z,1.72
2023-02-08T10:16:33.483Z,1.84
2023-02-08T10:19:33.155Z,1.84
2023-02-08T10:22:17.256Z,2.08
2023-02-08T10:24:49.706Z,2.27
2023-02-08T10:27:21.245Z,2.43
2023-02-08T10:30:05.805Z,2.53
2023-02-08T10:32:40.331Z,2.64
2023-02-08T10:35:13.969Z,2.73
2023-02-08T10:37:43.503Z,2.82
2023-02-08T10:40:29.373Z,2.87
2023-02-08T10:43:11.563Z,3.05
2023-02-08T10:45:52.996Z,3.08
2023-02-08T10:49:08.266Z,3.22
2023-02-08T10:51:35.369Z,3.30
2023-02-08T10:54:01.988Z,3.38
2023-02-08T10:56:52.793Z,3.36
2023-02-08T10:59:24.152Z,3.47
2023-02-08T11:01:51.154Z,3.65
2023-02-08T11:04:18.255Z,3.76
2023-02-08T11:06:46.247Z,3.89
2023-02-08T11:09:29.296Z,4.00
2023-02-08T11:11:57.729Z,4.10
2023-02-08T11:14:45.392Z,4.13
2023-02-08T11:17:34.062Z,4.17
2023-02-08T11:20:01.048Z,4.21
2023-02-08T11:22:31.323Z,4.39
2023-02-08T11:25:05.638Z,4.45
2023-02-08T11:27:34.105Z,4.56
2023-02-08T11:30:23.281Z,4.62
2023-02-08T11:33:15.742Z,4.68
2023-02-08T11:35:42.533Z,4.75
2023-02-08T11:38:18.995Z,4.85
2023-02-08T11:40:46.345Z,4.90
2023-02-08T11:43:42.463Z,4.99
2023-02-08T11:46:11.074Z,5.02
2023-02-08T11:48:51.337Z,5.12
2023-02-08T11:51:35.742Z,5.12
2023-02-08T11:54:03.871Z,5.10
2023-02-08T11:56:32.640Z,5.16
2023-02-08T11:59:20.041Z,5.19
2023-02-08T12:01:46.880Z,5.29
2023-02-08T12:04:15.860Z,5.47
2023-02-08T12:07:01.227Z,5.54
2023-02-08T12:09:27.672Z,5.58
2023-02-08T12:12:13.704Z,5.61
2023-02-08T12:15:08.260Z,5.73
2023-02-08T12:17:40.667Z,5.82
2023-02-08T12:20:41.336Z,5.84
2023-02-08T12:23:07.743Z,5.93
2023-02-08T12:25:39.553Z,5.99
2023-02-08T12:28:36.104Z,6.05
2023-02-08T12:31:31.890Z,6.13
2023-02-08T12:34:15.683Z,6.12
2023-02-08T12:37:26.822Z,6.18
2023-02-08T12:40:28.430Z,6.14
2023-02-08T12:43:21.622Z,6.12
2023-02-08T12:46:13.236Z,6.16
2023-02-08T12:48:47.535Z,6.20
2023-02-08T12:51:26.148Z,6.25
2023-02-08T12:54:02.880Z,6.27
2023-02-08T12:56:38.251Z,6.34
2023-02-08T12:59:13.815Z,6.36
2023-02-08T13:01:51.327Z,6.40
2023-02-08T13:04:26.631Z,6.49
2023-02-08T13:06:58.570Z,6.49
2023-02-08T13:09:35.723Z,6.54
2023-02-08T13:12:28.644Z,6.58
2023-02-08T13:15:29.670Z,6.68
2023-02-08T13:18:12.945Z,6.75
2023-02-08T13:21:08.314Z,6.75
2023-02-08T13:23:51.659Z,6.72
2023-02-08T13:26:28.742Z,6.77
2023-02-08T13:28:59.436Z,6.85
2023-02-08T13:31:44.864Z,6.82
2023-02-08T13:34:29.892Z,6.85
2023-02-08T13:37:02.000Z,6.91
2023-02-08T13:39:39.742Z,6.89
2023-02-08T13:42:08.605Z,6.87
2023-02-08T13:44:40.583Z,6.94
2023-02-08T13:47:33.130Z,7.00
2023-02-08T13:50:01.795Z,7.00
2023-02-08T13:52:46.966Z,7.06
2023-02-08T13:55:33.653Z,7.01
2023-02-08T13:58:13.333Z,7.04
2023-02-08T14:00:55.127Z,7.05
2023-02-08T14:03:23.736Z,7.03
2023-02-08T14:05:58.921Z,7.02
2023-02-08T14:08:28.443Z,7.06
2023-02-08T14:11:27.971Z,7.16
2023-02-08T14:14:00.902Z,7.18
2023-02-08T14:16:39.703Z,7.19
2023-02-08T14:19:23.072Z,7.54
2023-02-08T14:22:12.661Z,8.40
2023-02-08T14:25:03.836Z,9.11
2023-02-08T14:27:55.120Z,9.89
2023-02-08T14:30:32.769Z,10.44
2023-02-08T14:33:05.036Z,10.83
2023-02-08T14:35:36.725Z,11.07
2023-02-08T14:38:18.514Z,10.72
2023-02-08T14:40:55.852Z,10.17
2023-02-08T14:43:36.700Z,9.61
2023-02-08T14:46:37.251Z,9.19
2023-02-08T14:49:17.145Z,8.74
2023-02-08T14:51:56.259Z,8.61
2023-02-08T14:54:32.964Z,8.44
2023-02-08T14:57:07.288Z,8.31
2023-02-08T14:59:35.569Z,8.17
2023-02-08T15:02:19.805Z,8.03
2023-02-08T15:04:46.877Z,7.89
2023-02-08T15:07:34.611Z,7.80
2023-02-08T15:10:13.347Z,7.73
2023-02-08T15:12:43.927Z,7.59
2023-02-08T15:15:42.725Z,7.51
2023-02-08T15:18:19.869Z,7.43
2023-02-08T15:21:01.157Z,7.33
2023-02-08T15:23:27.646Z,7.18
2023-02-08T15:26:01.544Z,7.12
2023-02-08T15:28:30.324Z,7.03
2023-02-08T15:31:05.904Z,7.01
2023-02-08T15:33:33.073Z,7.05
2023-02-08T15:36:07.017Z,7.09
2023-02-08T15:38:37.213Z,7.16
2023-02-08T15:41:15.633Z,7.00
2023-02-08T15:43:42.991Z,6.77
2023-02-08T15:46:23.565Z,6.75
2023-02-08T15:48:51.182Z,7.01
2023-02-08T15:51:20.456Z,7.26
2023-02-08T15:53:50.439Z,7.22
2023-02-08T15:56:39.470Z,7.24
2023-02-08T15:59:19.862Z,7.32
2023-02-08T16:01:47.974Z,7.05
2023-02-08T16:04:14.790Z,6.89
2023-02-08T16:06:49.335Z,7.25
2023-02-08T16:09:25.090Z,7.25
2023-02-08T16:11:52.304Z,6.87
2023-02-08T16:14:25.289Z,6.45
2023-02-08T16:16:56.546Z,6.16
2023-02-08T16:19:31.428Z,5.94
2023-02-08T16:22:25.616Z,5.71
2023-02-08T16:24:52.061Z,5.57
2023-02-08T16:27:28.788Z,5.44
2023-02-08T16:29:56.328Z,5.32
2023-02-08T16:32:30.643Z,5.21
2023-02-08T16:34:57.715Z,5.08
2023-02-08T16:37:32.694Z,5.00
2023-02-08T16:40:02.503Z,4.90
2023-02-08T16:42:35.870Z,4.79
2023-02-08T16:45:17.694Z,4.64
2023-02-08T16:47:50.216Z,4.51
2023-02-08T16:50:25.756Z,4.35
2023-02-08T16:53:12.345Z,4.20
2023-02-08T16:55:39.058Z,4.00
2023-02-08T16:58:05.486Z,3.87
2023-02-08T17:00:34.592Z,3.73
2023-02-08T17:03:01.643Z,3.62
2023-02-08T17:05:37.038Z,3.49
2023-02-08T17:08:06.800Z,3.39
2023-02-08T17:10:34.069Z,3.21
2023-02-08T17:13:18.698Z,3.12
2023-02-08T17:15:48.876Z,3.00
2023-02-08T17:18:15.485Z,2.85
2023-02-08T17:20:42.739Z,2.70
2023-02-08T17:23:09.820Z,2.56
2023-02-08T17:25:36.512Z,2.41
2023-02-08T17:28:06.196Z,2.21
2023-02-08T17:30:38.861Z,2.11
2023-02-08T17:33:11.454Z,1.94
2023-02-08T17:35:38.468Z,1.81
2023-02-08T17:38:05.732Z,1.80
2023-02-08T17:40:35.698Z,1.67
2023-02-08T17:43:03.549Z,1.63
2023-02-08T17:45:30.549Z,1.49
2023-02-08T17:48:00.177Z,1.36
2023-02-08T17:50:27.071Z,1.25
2023-02-08T17:52:54.164Z,1.16
2023-02-08T17:55:20.664Z,1.08
2023-02-08T17:57:47.938Z,0.99
2023-02-08T18:00:17.904Z,0.93
2023-02-08T18:02:50.378Z,0.85
2023-02-08T18:05:25.276Z,0.79
2023-02-08T18:07:53.791Z,0.69
2023-02-08T18:10:20.535Z,0.62
2023-02-08T18:12:47.334Z,0.53
2023-02-08T18:15:17.716Z,0.46
2023-02-08T18:17:44.763Z,0.33
2023-02-08T18:20:14.234Z,0.32
2023-02-08T18:22:43.960Z,0.23
2023-02-08T18:25:11.395Z,0.21
2023-02-08T18:27:38.264Z,0.15
2023-02-08T18:30:05.264Z,0.07
2023-02-08T18:32:31.773Z,0.03
2023-02-08T18:34:58.657Z,-0.02
2023-02-08T18:37:25.464Z,-0.08
2023-02-08T18:39:52.292Z,-0.10
2023-02-08T18:42:18.919Z,-0.09
2023-02-08T18:44:45.664Z,-0.14
2023-02-08T18:47:12.203Z,-0.14
2023-02-08T18:49:40.972Z,-0.24
2023-02-08T18:52:13.411Z,-0.24
2023-02-08T18:54:40.343Z,-0.23
2023-02-08T18:57:09.613Z,-0.16
2023-02-08T18:59:39.183Z,-0.18
2023-02-08T19:02:07.393Z,-0.23
2023-02-08T19:04:40.638Z,-0.24
2023-02-08T19:07:07.583Z,-0.24
2023-02-08T19:09:37.878Z,-0.30
2023-02-08T19:12:05.717Z,-0.38
2023-02-08T19:14:32.352Z,-0.42
2023-02-08T19:16:58.934Z,-0.46
2023-02-08T19:19:25.484Z,-0.53
2023-02-08T19:21:52.062Z,-0.55
2023-02-08T19:24:19.705Z,-0.49
2023-02-08T19:26:47.147Z,-0.47
2023-02-08T19:29:16.388Z,-0.47
2023-02-08T19:31:44.236Z,-0.44
2023-02-08T19:34:12.227Z,-0.50
2023-02-08T19:36:45.027Z,-0.53
2023-02-08T19:39:15.106Z,-0.49
2023-02-08T19:41:42.026Z,-0.54
2023-02-08T19:44:11.529Z,-0.53
2023-02-08T19:46:44.123Z,-0.44
2023-02-08T19:49:12.569Z,-0.40
2023-02-08T19:51:40.032Z,-0.44
2023-02-08T19:54:10.158Z,-0.52
2023-02-08T19:56:37.247Z,-0.55
2023-02-08T19:59:05.296Z,-0.61
2023-02-08T20:01:36.232Z,-0.64
2023-02-08T20:04:04.027Z,-0.67
2023-02-08T20:06:34.651Z,-0.71
2023-02-08T20:09:01.688Z,-0.70
2023-02-08T20:11:31.565Z,-0.72
2023-02-08T20:13:59.899Z,-0.74
2023-02-08T20:16:30.466Z,-0.72
2023-02-08T20:18:58.487Z,-0.73
2023-02-08T20:21:25.059Z,-0.74
2023-02-08T20:23:51.585Z,-0.68
2023-02-08T20:26:19.501Z,-0.70
2023-02-08T20:28:50.333Z,-0.75
2023-02-08T20:31:26.131Z,-0.76
2023-02-08T20:33:53.451Z,-0.80
2023-02-08T20:36:23.813Z,-0.88
2023-02-08T20:38:52.616Z,-0.90
2023-02-08T20:41:20.756Z,-0.85
2023-02-08T20:43:47.845Z,-0.88
2023-02-08T20:46:18.542Z,-0.91
2023-02-08T20:48:45.113Z,-0.92
2023-02-08T20:51:14.283Z,-0.95
2023-02-08T20:53:42.715Z,-1.00
2023-02-08T20:56:12.476Z,-1.03
2023-02-08T20:58:39.121Z,-1.03
2023-02-08T21:01:11.319Z,-1.07
2023-02-08T21:03:38.258Z,-1.07
2023-02-08T21:06:32.815Z,-1.05
2023-02-08T21:09:04.357Z,-1.11
2023-02-08T21:11:32.174Z,-1.08
2023-02-08T21:13:59.053Z,-1.11
2023-02-08T21:16:26.157Z,-1.13
2023-02-08T21:18:52.883Z,-1.14
2023-02-08T21:21:19.863Z,-1.17
2023-02-08T21:23:46.794Z,-1.20
2023-02-08T21:26:15.786Z,-1.24
2023-02-08T21:28:43.709Z,-1.22
2023-02-08T21:31:14.725Z,-1.26
2023-02-08T21:33:45.094Z,-1.25
2023-02-08T21:36:18.174Z,-1.25
2023-02-08T21:38:45.070Z,-1.33
2023-02-08T21:41:17.059Z,-1.35
2023-02-08T21:43:43.608Z,-1.33
2023-02-08T21:46:10.426Z,-1.36
2023-02-08T21:48:55.430Z,-1.37
2023-02-08T21:51:42.344Z,-1.38
2023-02-08T21:54:33.349Z,-1.39
2023-02-08T21:57:02.063Z,-1.40
2023-02-08T21:59:29.453Z,-1.43
2023-02-08T22:01:55.961Z,-1.44
2023-02-08T22:04:22.656Z,-1.48
2023-02-08T22:06:49.247Z,-1.48
2023-02-08T22:09:17.076Z,-1.51
2023-02-08T22:11:43.747Z,-1.51
2023-02-08T22:14:12.285Z,-1.51
2023-02-08T22:16:39.169Z,-1.51
2023-02-08T22:19:06.450Z,-1.54
2023-02-08T22:21:34.249Z,-1.55
2023-02-08T22:24:00.795Z,-1.57
2023-02-08T22:26:27.520Z,-1.59
2023-02-08T22:28:54.241Z,-1.55
2023-02-08T22:31:21.044Z,-1.60
2023-02-08T22:33:47.613Z,-1.62
2023-02-08T22:36:14.191Z,-1.68
2023-02-08T22:38:40.661Z,-1.66
2023-02-08T22:41:12.344Z,-1.71
2023-02-08T22:43:39.395Z,-1.73
2023-02-08T22:46:06.724Z,-1.73
2023-02-08T22:48:33.804Z,-1.77
2023-02-08T22:51:05.733Z,-1.81
2023-02-08T22:53:32.212Z,-1.84
2023-02-08T22:55:58.705Z,-1.89
2023-02-08T22:58:25.748Z,-1.89
2023-02-08T23:00:52.340Z,-1.90
2023-02-08T23:03:18.894Z,-1.95
2023-02-08T23:05:48.581Z,-1.95
2023-02-08T23:08:16.861Z,-1.95
2023-02-08T23:10:43.901Z,-1.98
2023-02-08T23:13:11.789Z,-2.05
2023-02-08T23:15:41.326Z,-2.03
2023-02-08T23:18:08.206Z,-2.00
2023-02-08T23:20:40.070Z,-2.00
2023-02-08T23:23:06.628Z,-2.02
2023-02-08T23:25:33.296Z,-2.04
2023-02-08T23:27:59.825Z,-2.08
2023-02-08T23:30:26.357Z,-2.06
2023-02-08T23:32:52.816Z,-2.09
2023-02-08T23:35:19.295Z,-2.09
2023-02-08T23:37:45.783Z,-2.10
2023-02-08T23:40:12.683Z,-2.20
2023-02-08T23:42:39.176Z,-2.25
2023-02-08T23:45:06.327Z,-2.30
2023-02-08T23:47:33.001Z,-2.25
2023-02-08T23:49:59.489Z,-2.27
2023-02-08T23:52:26.216Z,-2.25
2023-02-08T23:54:52.723Z,-2.27
2023-02-08T23:57:19.357Z,-2.24
2023-02-08T23:59:45.973Z,-2.26
